sensor_id;sensor_type;location;lat;lon;timestamp;P1;durP1;ratioP1;P2;durP2;ratioP2
6852;SDS011;3465;42.144;24.722;2022-12-29T00:01:30;25.47;;;11.00;;
6852;SDS011;3465;42.144;24.722;2022-12-29T00:03:57;25.27;;;11.47;;
6852;SDS011;3465;42.144;24.722;2022-12-29T00:06:22;24.37;;;10.57;;
6852;SDS011;3465;42.144;24.722;2022-12-29T00:08:48;24.33;;;10.50;;
6852;SDS011;3465;42.144;24.722;2022-12-29T00:11:15;27.47;;;9.57;;
6852;SDS011;3465;42.144;24.722;2022-12-29T00:13:43;22.10;;;10.50;;
6852;SDS011;3465;42.144;24.722;2022-12-29T00:16:27;23.73;;;10.10;;
6852;SDS011;3465;42.144;24.722;2022-12-29T00:18:53;21.80;;;10.73;;
6852;SDS011;3465;42.144;24.722;2022-12-29T00:21:21;21.50;;;10.47;;
6852;SDS011;3465;42.144;24.722;2022-12-29T00:24:08;21.60;;;9.80;;
6852;SDS011;3465;42.144;24.722;2022-12-29T00:26:55;22.07;;;10.20;;
6852;SDS011;3465;42.144;24.722;2022-12-29T00:29:40;25.43;;;10.73;;
6852;SDS011;3465;42.144;24.722;2022-12-29T00:32:24;18.10;;;9.97;;
6852;SDS011;3465;42.144;24.722;2022-12-29T00:35:09;23.23;;;10.83;;
6852;SDS011;3465;42.144;24.722;2022-12-29T00:37:42;23.07;;;11.60;;
6852;SDS011;3465;42.144;24.722;2022-12-29T00:40:29;24.57;;;10.90;;
6852;SDS011;3465;42.144;24.722;2022-12-29T00:43:13;23.93;;;10.90;;
6852;SDS011;3465;42.144;24.722;2022-12-29T00:45:57;198.97;;;22.07;;
6852;SDS011;3465;42.144;24.722;2022-12-29T00:48:23;109.63;;;16.93;;
6852;SDS011;3465;42.144;24.722;2022-12-29T00:51:07;37.83;;;12.87;;
6852;SDS011;3465;42.144;24.722;2022-12-29T00:53:33;47.63;;;13.37;;
6852;SDS011;3465;42.144;24.722;2022-12-29T00:55:58;34.23;;;12.13;;
6852;SDS011;3465;42.144;24.722;2022-12-29T00:58:26;26.90;;;12.73;;
6852;SDS011;3465;42.144;24.722;2022-12-29T01:00:52;28.17;;;11.87;;
6852;SDS011;3465;42.144;24.722;2022-12-29T01:03:17;21.50;;;11.43;;
6852;SDS011;3465;42.144;24.722;2022-12-29T01:05:43;24.73;;;11.63;;
6852;SDS011;3465;42.144;24.722;2022-12-29T01:08:09;33.90;;;12.03;;
6852;SDS011;3465;42.144;24.722;2022-12-29T01:10:34;27.47;;;12.73;;
6852;SDS011;3465;42.144;24.722;2022-12-29T01:12:59;31.03;;;11.63;;
6852;SDS011;3465;42.144;24.722;2022-12-29T01:15:25;23.97;;;11.70;;
6852;SDS011;3465;42.144;24.722;2022-12-29T01:17:50;29.23;;;12.07;;
6852;SDS011;3465;42.144;24.722;2022-12-29T01:20:16;25.10;;;11.57;;
6852;SDS011;3465;42.144;24.722;2022-12-29T01:22:41;24.60;;;11.30;;
6852;SDS011;3465;42.144;24.722;2022-12-29T01:25:08;25.97;;;11.87;;
6852;SDS011;3465;42.144;24.722;2022-12-29T01:27:34;25.47;;;11.80;;
6852;SDS011;3465;42.144;24.722;2022-12-29T01:29:59;29.57;;;11.87;;
6852;SDS011;3465;42.144;24.722;2022-12-29T01:32:24;21.93;;;11.43;;
6852;SDS011;3465;42.144;24.722;2022-12-29T01:34:50;21.43;;;11.03;;
6852;SDS011;3465;42.144;24.722;2022-12-29T01:37:15;26.73;;;12.53;;
6852;SDS011;3465;42.144;24.722;2022-12-29T01:39:41;23.87;;;13.27;;
6852;SDS011;3465;42.144;24.722;2022-12-29T01:42:10;27.33;;;12.03;;
6852;SDS011;3465;42.144;24.722;2022-12-29T01:44:50;24.53;;;13.50;;
6852;SDS011;3465;42.144;24.722;2022-12-29T01:49:53;26.77;;;14.27;;
6852;SDS011;3465;42.144;24.722;2022-12-29T01:52:21;27.53;;;15.60;;
6852;SDS011;3465;42.144;24.722;2022-12-29T01:54:49;28.20;;;15.27;;
6852;SDS011;3465;42.144;24.722;2022-12-29T01:57:20;27.57;;;15.43;;
6852;SDS011;3465;42.144;24.722;2022-12-29T01:59:58;30.37;;;15.53;;
6852;SDS011;3465;42.144;24.722;2022-12-29T02:02:34;31.53;;;15.40;;
6852;SDS011;3465;42.144;24.722;2022-12-29T02:05:03;34.37;;;16.33;;
6852;SDS011;3465;42.144;24.722;2022-12-29T02:07:34;31.07;;;15.70;;
6852;SDS011;3465;42.144;24.722;2022-12-29T02:10:00;31.83;;;15.90;;
6852;SDS011;3465;42.144;24.722;2022-12-29T02:12:27;30.60;;;15.63;;
6852;SDS011;3465;42.144;24.722;2022-12-29T02:14:57;33.53;;;16.60;;
6852;SDS011;3465;42.144;24.722;2022-12-29T02:22:34;34.47;;;16.17;;
6852;SDS011;3465;42.144;24.722;2022-12-29T02:37:20;31.60;;;17.03;;
6852;SDS011;3465;42.144;24.722;2022-12-29T02:45:32;32.67;;;16.50;;
6852;SDS011;3465;42.144;24.722;2022-12-29T02:48:06;36.87;;;16.03;;
6852;SDS011;3465;42.144;24.722;2022-12-29T02:53:16;30.80;;;16.83;;
6852;SDS011;3465;42.144;24.722;2022-12-29T02:56:04;31.83;;;17.20;;
6852;SDS011;3465;42.144;24.722;2022-12-29T02:58:29;33.10;;;16.23;;
6852;SDS011;3465;42.144;24.722;2022-12-29T03:14:40;36.73;;;16.53;;
6852;SDS011;3465;42.144;24.722;2022-12-29T03:17:35;32.80;;;16.33;;
6852;SDS011;3465;42.144;24.722;2022-12-29T03:20:10;33.30;;;17.20;;
6852;SDS011;3465;42.144;24.722;2022-12-29T03:22:42;34.90;;;17.07;;
6852;SDS011;3465;42.144;24.722;2022-12-29T03:25:32;35.03;;;17.90;;
6852;SDS011;3465;42.144;24.722;2022-12-29T03:28:06;39.43;;;17.57;;
6852;SDS011;3465;42.144;24.722;2022-12-29T03:30:34;36.90;;;18.63;;
6852;SDS011;3465;42.144;24.722;2022-12-29T03:33:02;34.23;;;17.57;;
6852;SDS011;3465;42.144;24.722;2022-12-29T03:35:30;39.30;;;17.83;;
6852;SDS011;3465;42.144;24.722;2022-12-29T03:38:00;44.03;;;18.87;;
6852;SDS011;3465;42.144;24.722;2022-12-29T03:40:55;31.83;;;17.10;;
6852;SDS011;3465;42.144;24.722;2022-12-29T03:43:23;36.07;;;16.90;;
6852;SDS011;3465;42.144;24.722;2022-12-29T03:45:48;40.70;;;18.40;;
6852;SDS011;3465;42.144;24.722;2022-12-29T03:48:14;41.20;;;18.40;;
6852;SDS011;3465;42.144;24.722;2022-12-29T03:50:40;40.13;;;18.67;;
6852;SDS011;3465;42.144;24.722;2022-12-29T03:53:05;36.83;;;18.53;;
6852;SDS011;3465;42.144;24.722;2022-12-29T03:55:33;38.73;;;19.70;;
6852;SDS011;3465;42.144;24.722;2022-12-29T03:57:59;39.60;;;19.40;;
6852;SDS011;3465;42.144;24.722;2022-12-29T04:00:24;41.87;;;19.87;;
6852;SDS011;3465;42.144;24.722;2022-12-29T04:02:50;40.40;;;19.60;;
6852;SDS011;3465;42.144;24.722;2022-12-29T04:05:15;41.57;;;20.17;;
6852;SDS011;3465;42.144;24.722;2022-12-29T04:07:41;46.03;;;20.50;;
6852;SDS011;3465;42.144;24.722;2022-12-29T04:10:06;47.10;;;20.73;;
6852;SDS011;3465;42.144;24.722;2022-12-29T04:12:32;44.57;;;21.07;;
6852;SDS011;3465;42.144;24.722;2022-12-29T04:15:00;46.53;;;21.33;;
6852;SDS011;3465;42.144;24.722;2022-12-29T04:17:25;42.03;;;20.07;;
6852;SDS011;3465;42.144;24.722;2022-12-29T04:19:51;39.20;;;20.53;;
6852;SDS011;3465;42.144;24.722;2022-12-29T04:22:16;44.50;;;19.77;;
6852;SDS011;3465;42.144;24.722;2022-12-29T04:24:41;39.53;;;20.70;;
6852;SDS011;3465;42.144;24.722;2022-12-29T04:27:07;36.23;;;19.90;;
6852;SDS011;3465;42.144;24.722;2022-12-29T04:29:32;41.67;;;20.37;;
6852;SDS011;3465;42.144;24.722;2022-12-29T04:31:58;42.60;;;20.37;;
6852;SDS011;3465;42.144;24.722;2022-12-29T04:34:23;40.37;;;21.33;;
6852;SDS011;3465;42.144;24.722;2022-12-29T04:36:48;45.67;;;21.43;;
6852;SDS011;3465;42.144;24.722;2022-12-29T04:39:14;42.53;;;21.07;;
6852;SDS011;3465;42.144;24.722;2022-12-29T04:41:39;43.90;;;20.33;;
6852;SDS011;3465;42.144;24.722;2022-12-29T04:44:05;43.07;;;19.50;;
6852;SDS011;3465;42.144;24.722;2022-12-29T04:46:30;44.10;;;20.00;;
6852;SDS011;3465;42.144;24.722;2022-12-29T04:48:55;42.00;;;20.53;;
6852;SDS011;3465;42.144;24.722;2022-12-29T04:51:21;41.37;;;20.30;;
6852;SDS011;3465;42.144;24.722;2022-12-29T04:53:46;41.23;;;21.10;;
6852;SDS011;3465;42.144;24.722;2022-12-29T04:56:12;40.33;;;20.50;;
6852;SDS011;3465;42.144;24.722;2022-12-29T04:58:37;43.00;;;21.00;;
6852;SDS011;3465;42.144;24.722;2022-12-29T05:01:02;45.50;;;21.17;;
6852;SDS011;3465;42.144;24.722;2022-12-29T05:03:28;41.37;;;20.37;;
6852;SDS011;3465;42.144;24.722;2022-12-29T05:05:54;41.13;;;20.37;;
6852;SDS011;3465;42.144;24.722;2022-12-29T05:08:20;43.80;;;21.07;;
6852;SDS011;3465;42.144;24.722;2022-12-29T05:10:46;46.23;;;21.47;;
6852;SDS011;3465;42.144;24.722;2022-12-29T05:13:11;44.70;;;21.17;;
6852;SDS011;3465;42.144;24.722;2022-12-29T05:15:37;48.37;;;22.30;;
6852;SDS011;3465;42.144;24.722;2022-12-29T05:18:14;47.20;;;21.60;;
6852;SDS011;3465;42.144;24.722;2022-12-29T05:20:40;48.97;;;21.03;;
6852;SDS011;3465;42.144;24.722;2022-12-29T05:23:06;46.80;;;21.13;;
6852;SDS011;3465;42.144;24.722;2022-12-29T05:25:31;50.73;;;22.37;;
6852;SDS011;3465;42.144;24.722;2022-12-29T05:27:56;40.77;;;20.73;;
6852;SDS011;3465;42.144;24.722;2022-12-29T05:30:22;46.60;;;21.27;;
6852;SDS011;3465;42.144;24.722;2022-12-29T05:32:47;49.53;;;21.83;;
6852;SDS011;3465;42.144;24.722;2022-12-29T05:35:13;48.07;;;22.13;;
6852;SDS011;3465;42.144;24.722;2022-12-29T05:37:38;53.43;;;22.57;;
6852;SDS011;3465;42.144;24.722;2022-12-29T05:40:04;45.83;;;20.90;;
6852;SDS011;3465;42.144;24.722;2022-12-29T05:42:29;51.47;;;21.43;;
6852;SDS011;3465;42.144;24.722;2022-12-29T05:44:55;42.57;;;21.40;;
6852;SDS011;3465;42.144;24.722;2022-12-29T05:47:20;45.80;;;22.00;;
6852;SDS011;3465;42.144;24.722;2022-12-29T05:49:46;50.70;;;22.87;;
6852;SDS011;3465;42.144;24.722;2022-12-29T05:55:07;52.97;;;24.13;;
6852;SDS011;3465;42.144;24.722;2022-12-29T05:57:33;62.37;;;24.87;;
6852;SDS011;3465;42.144;24.722;2022-12-29T06:00:03;55.67;;;23.43;;
6852;SDS011;3465;42.144;24.722;2022-12-29T06:02:29;58.20;;;25.03;;
6852;SDS011;3465;42.144;24.722;2022-12-29T06:04:55;61.07;;;25.60;;
6852;SDS011;3465;42.144;24.722;2022-12-29T06:07:20;54.60;;;23.03;;
6852;SDS011;3465;42.144;24.722;2022-12-29T06:09:46;51.50;;;22.80;;
6852;SDS011;3465;42.144;24.722;2022-12-29T06:12:11;57.60;;;23.63;;
6852;SDS011;3465;42.144;24.722;2022-12-29T06:14:36;74.30;;;24.70;;
6852;SDS011;3465;42.144;24.722;2022-12-29T06:17:02;61.70;;;25.10;;
6852;SDS011;3465;42.144;24.722;2022-12-29T06:19:27;67.70;;;25.97;;
6852;SDS011;3465;42.144;24.722;2022-12-29T06:21:53;59.57;;;26.87;;
6852;SDS011;3465;42.144;24.722;2022-12-29T06:24:18;60.50;;;25.63;;
6852;SDS011;3465;42.144;24.722;2022-12-29T06:26:44;63.83;;;29.00;;
6852;SDS011;3465;42.144;24.722;2022-12-29T06:29:09;71.20;;;30.93;;
6852;SDS011;3465;42.144;24.722;2022-12-29T06:31:35;78.03;;;31.20;;
6852;SDS011;3465;42.144;24.722;2022-12-29T06:34:00;80.73;;;32.60;;
6852;SDS011;3465;42.144;24.722;2022-12-29T06:36:26;77.67;;;32.17;;
6852;SDS011;3465;42.144;24.722;2022-12-29T06:38:51;74.80;;;30.47;;
6852;SDS011;3465;42.144;24.722;2022-12-29T06:41:17;66.40;;;28.87;;
6852;SDS011;3465;42.144;24.722;2022-12-29T06:43:47;80.17;;;33.83;;
6852;SDS011;3465;42.144;24.722;2022-12-29T06:46:12;84.63;;;36.70;;
6852;SDS011;3465;42.144;24.722;2022-12-29T06:48:38;80.97;;;32.30;;
6852;SDS011;3465;42.144;24.722;2022-12-29T06:51:03;73.37;;;28.03;;
6852;SDS011;3465;42.144;24.722;2022-12-29T06:53:29;59.97;;;25.67;;
6852;SDS011;3465;42.144;24.722;2022-12-29T06:55:54;49.23;;;24.83;;
6852;SDS011;3465;42.144;24.722;2022-12-29T06:58:21;62.63;;;24.93;;
6852;SDS011;3465;42.144;24.722;2022-12-29T07:00:47;46.17;;;23.27;;
6852;SDS011;3465;42.144;24.722;2022-12-29T07:03:12;47.73;;;21.73;;
6852;SDS011;3465;42.144;24.722;2022-12-29T07:05:37;48.77;;;21.63;;
6852;SDS011;3465;42.144;24.722;2022-12-29T07:08:03;47.33;;;22.60;;
6852;SDS011;3465;42.144;24.722;2022-12-29T07:10:29;41.27;;;21.00;;
6852;SDS011;3465;42.144;24.722;2022-12-29T07:12:54;42.97;;;20.50;;
6852;SDS011;3465;42.144;24.722;2022-12-29T07:15:19;42.43;;;19.83;;
6852;SDS011;3465;42.144;24.722;2022-12-29T07:17:45;52.27;;;22.57;;
6852;SDS011;3465;42.144;24.722;2022-12-29T07:20:10;48.87;;;23.13;;
6852;SDS011;3465;42.144;24.722;2022-12-29T07:22:36;49.63;;;22.63;;
6852;SDS011;3465;42.144;24.722;2022-12-29T07:25:01;48.50;;;23.00;;
6852;SDS011;3465;42.144;24.722;2022-12-29T07:27:28;50.23;;;23.73;;
6852;SDS011;3465;42.144;24.722;2022-12-29T07:29:53;38.83;;;20.57;;
6852;SDS011;3465;42.144;24.722;2022-12-29T07:32:19;38.43;;;19.03;;
6852;SDS011;3465;42.144;24.722;2022-12-29T07:34:44;33.40;;;18.43;;
6852;SDS011;3465;42.144;24.722;2022-12-29T07:37:12;37.00;;;18.57;;
6852;SDS011;3465;42.144;24.722;2022-12-29T07:39:39;34.03;;;17.77;;
6852;SDS011;3465;42.144;24.722;2022-12-29T07:42:05;36.90;;;17.90;;
6852;SDS011;3465;42.144;24.722;2022-12-29T07:44:30;37.83;;;17.57;;
6852;SDS011;3465;42.144;24.722;2022-12-29T07:46:56;35.70;;;16.70;;
6852;SDS011;3465;42.144;24.722;2022-12-29T07:49:21;30.57;;;17.73;;
6852;SDS011;3465;42.144;24.722;2022-12-29T07:51:46;38.53;;;18.97;;
6852;SDS011;3465;42.144;24.722;2022-12-29T07:54:12;36.47;;;17.17;;
6852;SDS011;3465;42.144;24.722;2022-12-29T07:56:37;36.90;;;17.87;;
6852;SDS011;3465;42.144;24.722;2022-12-29T07:59:03;31.03;;;16.57;;
6852;SDS011;3465;42.144;24.722;2022-12-29T08:01:28;29.97;;;16.63;;
6852;SDS011;3465;42.144;24.722;2022-12-29T08:03:54;28.60;;;15.73;;
6852;SDS011;3465;42.144;24.722;2022-12-29T08:06:22;32.60;;;16.00;;
6852;SDS011;3465;42.144;24.722;2022-12-29T08:08:47;26.83;;;14.57;;
6852;SDS011;3465;42.144;24.722;2022-12-29T08:11:13;39.80;;;15.33;;
6852;SDS011;3465;42.144;24.722;2022-12-29T08:13:38;27.27;;;13.90;;
6852;SDS011;3465;42.144;24.722;2022-12-29T08:16:04;28.33;;;15.10;;
6852;SDS011;3465;42.144;24.722;2022-12-29T08:18:29;23.87;;;13.37;;
6852;SDS011;3465;42.144;24.722;2022-12-29T08:20:55;26.93;;;14.50;;
6852;SDS011;3465;42.144;24.722;2022-12-29T08:23:20;31.13;;;15.20;;
6852;SDS011;3465;42.144;24.722;2022-12-29T08:25:45;33.27;;;15.47;;
6852;SDS011;3465;42.144;24.722;2022-12-29T08:28:11;34.17;;;15.73;;
6852;SDS011;3465;42.144;24.722;2022-12-29T08:30:36;34.77;;;17.47;;
6852;SDS011;3465;42.144;24.722;2022-12-29T08:33:02;31.67;;;16.83;;
6852;SDS011;3465;42.144;24.722;2022-12-29T08:35:27;33.83;;;17.17;;
6852;SDS011;3465;42.144;24.722;2022-12-29T08:37:52;33.00;;;16.73;;
6852;SDS011;3465;42.144;24.722;2022-12-29T08:40:18;38.63;;;18.73;;
6852;SDS011;3465;42.144;24.722;2022-12-29T08:42:43;40.10;;;18.57;;
6852;SDS011;3465;42.144;24.722;2022-12-29T08:45:09;36.80;;;18.57;;
6852;SDS011;3465;42.144;24.722;2022-12-29T08:47:34;42.47;;;19.13;;
6852;SDS011;3465;42.144;24.722;2022-12-29T08:50:03;35.60;;;19.13;;
6852;SDS011;3465;42.144;24.722;2022-12-29T08:52:28;38.17;;;19.70;;
6852;SDS011;3465;42.144;24.722;2022-12-29T08:54:54;44.80;;;21.20;;
6852;SDS011;3465;42.144;24.722;2022-12-29T08:57:19;41.40;;;21.17;;
6852;SDS011;3465;42.144;24.722;2022-12-29T08:59:45;40.10;;;21.10;;
6852;SDS011;3465;42.144;24.722;2022-12-29T09:02:11;39.00;;;20.47;;
6852;SDS011;3465;42.144;24.722;2022-12-29T09:04:36;41.13;;;20.23;;
6852;SDS011;3465;42.144;24.722;2022-12-29T09:07:02;40.37;;;19.93;;
6852;SDS011;3465;42.144;24.722;2022-12-29T09:09:27;40.20;;;19.27;;
6852;SDS011;3465;42.144;24.722;2022-12-29T09:11:53;33.87;;;18.33;;
6852;SDS011;3465;42.144;24.722;2022-12-29T09:14:18;34.50;;;18.53;;
6852;SDS011;3465;42.144;24.722;2022-12-29T09:16:44;37.43;;;18.97;;
6852;SDS011;3465;42.144;24.722;2022-12-29T09:19:28;33.80;;;17.53;;
6852;SDS011;3465;42.144;24.722;2022-12-29T09:21:53;30.40;;;16.57;;
6852;SDS011;3465;42.144;24.722;2022-12-29T09:24:19;37.87;;;17.27;;
6852;SDS011;3465;42.144;24.722;2022-12-29T09:26:44;38.27;;;17.67;;
6852;SDS011;3465;42.144;24.722;2022-12-29T09:29:09;39.20;;;17.57;;
6852;SDS011;3465;42.144;24.722;2022-12-29T09:31:35;34.27;;;17.00;;
6852;SDS011;3465;42.144;24.722;2022-12-29T09:34:00;33.53;;;16.90;;
6852;SDS011;3465;42.144;24.722;2022-12-29T09:36:25;31.67;;;16.63;;
6852;SDS011;3465;42.144;24.722;2022-12-29T09:38:52;36.90;;;17.73;;
6852;SDS011;3465;42.144;24.722;2022-12-29T09:41:52;33.57;;;16.57;;
6852;SDS011;3465;42.144;24.722;2022-12-29T09:44:18;37.63;;;18.50;;
6852;SDS011;3465;42.144;24.722;2022-12-29T09:47:05;31.60;;;15.87;;
6852;SDS011;3465;42.144;24.722;2022-12-29T09:52:14;30.00;;;15.13;;
6852;SDS011;3465;42.144;24.722;2022-12-29T09:57:39;29.40;;;15.70;;
6852;SDS011;3465;42.144;24.722;2022-12-29T10:03:10;36.87;;;17.23;;
6852;SDS011;3465;42.144;24.722;2022-12-29T10:16:20;29.07;;;14.80;;
6852;SDS011;3465;42.144;24.722;2022-12-29T10:24:17;33.73;;;16.43;;
6852;SDS011;3465;42.144;24.722;2022-12-29T10:26:46;35.50;;;16.97;;
6852;SDS011;3465;42.144;24.722;2022-12-29T10:29:20;29.37;;;15.47;;
6852;SDS011;3465;42.144;24.722;2022-12-29T10:31:50;29.93;;;15.43;;
6852;SDS011;3465;42.144;24.722;2022-12-29T10:39:57;29.30;;;15.37;;
6852;SDS011;3465;42.144;24.722;2022-12-29T10:42:35;29.13;;;15.93;;
6852;SDS011;3465;42.144;24.722;2022-12-29T10:45:05;28.97;;;14.97;;
6852;SDS011;3465;42.144;24.722;2022-12-29T10:47:38;36.13;;;15.40;;
6852;SDS011;3465;42.144;24.722;2022-12-29T10:50:19;26.53;;;15.80;;
6852;SDS011;3465;42.144;24.722;2022-12-29T10:52:44;28.70;;;15.60;;
6852;SDS011;3465;42.144;24.722;2022-12-29T10:55:15;29.87;;;14.60;;
6852;SDS011;3465;42.144;24.722;2022-12-29T10:57:47;27.07;;;15.00;;
6852;SDS011;3465;42.144;24.722;2022-12-29T11:08:39;28.03;;;14.20;;
6852;SDS011;3465;42.144;24.722;2022-12-29T11:11:22;24.37;;;13.90;;
6852;SDS011;3465;42.144;24.722;2022-12-29T11:13:54;26.77;;;14.50;;
6852;SDS011;3465;42.144;24.722;2022-12-29T11:16:31;26.53;;;14.47;;
6852;SDS011;3465;42.144;24.722;2022-12-29T11:18:59;28.27;;;15.40;;
6852;SDS011;3465;42.144;24.722;2022-12-29T11:26:29;29.77;;;15.20;;
6852;SDS011;3465;42.144;24.722;2022-12-29T11:31:51;32.33;;;16.37;;
6852;SDS011;3465;42.144;24.722;2022-12-29T11:34:23;61.63;;;26.33;;
6852;SDS011;3465;42.144;24.722;2022-12-29T11:42:37;35.47;;;16.77;;
6852;SDS011;3465;42.144;24.722;2022-12-29T11:45:06;35.00;;;17.63;;
6852;SDS011;3465;42.144;24.722;2022-12-29T11:47:45;32.17;;;17.50;;
6852;SDS011;3465;42.144;24.722;2022-12-29T11:50:20;48.50;;;18.53;;
6852;SDS011;3465;42.144;24.722;2022-12-29T11:52:48;32.67;;;18.20;;
6852;SDS011;3465;42.144;24.722;2022-12-29T11:55:23;35.03;;;18.10;;
6852;SDS011;3465;42.144;24.722;2022-12-29T11:57:50;32.33;;;17.70;;
6852;SDS011;3465;42.144;24.722;2022-12-29T12:00:22;34.43;;;18.13;;
6852;SDS011;3465;42.144;24.722;2022-12-29T12:11:09;32.50;;;17.93;;
6852;SDS011;3465;42.144;24.722;2022-12-29T12:13:43;35.03;;;18.67;;
6852;SDS011;3465;42.144;24.722;2022-12-29T12:16:34;32.87;;;16.83;;
6852;SDS011;3465;42.144;24.722;2022-12-29T12:19:17;35.27;;;18.40;;
6852;SDS011;3465;42.144;24.722;2022-12-29T12:21:56;39.53;;;20.40;;
6852;SDS011;3465;42.144;24.722;2022-12-29T12:27:24;36.77;;;17.93;;
6852;SDS011;3465;42.144;24.722;2022-12-29T12:41:13;37.83;;;17.73;;
6852;SDS011;3465;42.144;24.722;2022-12-29T12:44:29;33.47;;;18.17;;
6852;SDS011;3465;42.144;24.722;2022-12-29T12:50:02;40.07;;;18.47;;
6852;SDS011;3465;42.144;24.722;2022-12-29T13:15:16;41.53;;;20.20;;
6852;SDS011;3465;42.144;24.722;2022-12-29T13:36:42;48.90;;;21.00;;
6852;SDS011;3465;42.144;24.722;2022-12-29T13:39:16;46.60;;;20.27;;
6852;SDS011;3465;42.144;24.722;2022-12-29T13:42:01;45.90;;;20.90;;
6852;SDS011;3465;42.144;24.722;2022-12-29T13:44:33;43.97;;;20.40;;
6852;SDS011;3465;42.144;24.722;2022-12-29T13:50:12;39.30;;;20.30;;
6852;SDS011;3465;42.144;24.722;2022-12-29T13:58:02;40.00;;;19.13;;
6852;SDS011;3465;42.144;24.722;2022-12-29T14:01:03;38.23;;;18.90;;
6852;SDS011;3465;42.144;24.722;2022-12-29T14:09:06;36.53;;;18.63;;
6852;SDS011;3465;42.144;24.722;2022-12-29T14:11:52;34.37;;;18.87;;
6852;SDS011;3465;42.144;24.722;2022-12-29T14:16:46;34.90;;;18.60;;
6852;SDS011;3465;42.144;24.722;2022-12-29T14:21:37;37.40;;;18.80;;
6852;SDS011;3465;42.144;24.722;2022-12-29T14:26:51;36.20;;;20.67;;
6852;SDS011;3465;42.144;24.722;2022-12-29T14:31:54;48.13;;;21.50;;
6852;SDS011;3465;42.144;24.722;2022-12-29T14:36:58;38.33;;;20.63;;
6852;SDS011;3465;42.144;24.722;2022-12-29T14:39:36;46.37;;;21.77;;
6852;SDS011;3465;42.144;24.722;2022-12-29T14:42:06;44.27;;;21.33;;
6852;SDS011;3465;42.144;24.722;2022-12-29T14:47:34;46.13;;;22.17;;
6852;SDS011;3465;42.144;24.722;2022-12-29T14:52:48;51.20;;;23.10;;
6852;SDS011;3465;42.144;24.722;2022-12-29T14:55:30;49.27;;;22.87;;
6852;SDS011;3465;42.144;24.722;2022-12-29T15:00:44;60.90;;;24.03;;
6852;SDS011;3465;42.144;24.722;2022-12-29T15:03:29;55.80;;;24.27;;
6852;SDS011;3465;42.144;24.722;2022-12-29T15:05:56;47.90;;;23.50;;
6852;SDS011;3465;42.144;24.722;2022-12-29T15:08:30;51.73;;;23.63;;
6852;SDS011;3465;42.144;24.722;2022-12-29T15:11:41;51.73;;;23.67;;
6852;SDS011;3465;42.144;24.722;2022-12-29T15:13:48;67.33;;;25.10;;
6852;SDS011;3465;42.144;24.722;2022-12-29T15:16:29;55.93;;;25.60;;
6852;SDS011;3465;42.144;24.722;2022-12-29T15:18:57;53.03;;;23.90;;
6852;SDS011;3465;42.144;24.722;2022-12-29T15:21:33;48.93;;;25.47;;
6852;SDS011;3465;42.144;24.722;2022-12-29T15:24:00;63.87;;;25.30;;
6852;SDS011;3465;42.144;24.722;2022-12-29T15:26:38;66.07;;;26.20;;
6852;SDS011;3465;42.144;24.722;2022-12-29T15:29:05;71.00;;;25.90;;
6852;SDS011;3465;42.144;24.722;2022-12-29T15:31:50;57.37;;;26.47;;
6852;SDS011;3465;42.144;24.722;2022-12-29T15:34:16;59.67;;;27.10;;
6852;SDS011;3465;42.144;24.722;2022-12-29T15:36:46;61.87;;;28.00;;
6852;SDS011;3465;42.144;24.722;2022-12-29T15:39:33;59.03;;;27.73;;
6852;SDS011;3465;42.144;24.722;2022-12-29T15:42:02;66.13;;;27.60;;
6852;SDS011;3465;42.144;24.722;2022-12-29T15:44:38;61.10;;;30.13;;
6852;SDS011;3465;42.144;24.722;2022-12-29T15:47:24;75.37;;;30.13;;
6852;SDS011;3465;42.144;24.722;2022-12-29T15:49:58;68.23;;;29.77;;
6852;SDS011;3465;42.144;24.722;2022-12-29T15:52:28;83.37;;;29.27;;
6852;SDS011;3465;42.144;24.722;2022-12-29T15:54:55;79.40;;;30.33;;
6852;SDS011;3465;42.144;24.722;2022-12-29T15:59:53;73.30;;;30.70;;
6852;SDS011;3465;42.144;24.722;2022-12-29T16:02:19;78.50;;;30.03;;
6852;SDS011;3465;42.144;24.722;2022-12-29T16:04:49;101.43;;;35.80;;
6852;SDS011;3465;42.144;24.722;2022-12-29T16:07:23;87.10;;;31.77;;
6852;SDS011;3465;42.144;24.722;2022-12-29T16:09:57;97.73;;;33.87;;
6852;SDS011;3465;42.144;24.722;2022-12-29T16:12:31;122.30;;;39.00;;
6852;SDS011;3465;42.144;24.722;2022-12-29T16:14:59;408.73;;;171.97;;
6852;SDS011;3465;42.144;24.722;2022-12-29T16:17:28;225.73;;;88.73;;
6852;SDS011;3465;42.144;24.722;2022-12-29T16:20:01;114.60;;;48.43;;
6852;SDS011;3465;42.144;24.722;2022-12-29T16:22:34;89.53;;;36.50;;
6852;SDS011;3465;42.144;24.722;2022-12-29T16:25:06;78.70;;;33.67;;
6852;SDS011;3465;42.144;24.722;2022-12-29T16:27:41;79.23;;;30.97;;
6852;SDS011;3465;42.144;24.722;2022-12-29T16:30:21;63.23;;;30.00;;
6852;SDS011;3465;42.144;24.722;2022-12-29T16:32:49;68.70;;;30.77;;
6852;SDS011;3465;42.144;24.722;2022-12-29T16:37:42;81.70;;;33.60;;
6852;SDS011;3465;42.144;24.722;2022-12-29T16:40:40;80.20;;;33.83;;
6852;SDS011;3465;42.144;24.722;2022-12-29T16:43:03;88.83;;;34.20;;
6852;SDS011;3465;42.144;24.722;2022-12-29T16:50:39;111.23;;;40.23;;
6852;SDS011;3465;42.144;24.722;2022-12-29T16:53:15;105.93;;;39.03;;
6852;SDS011;3465;42.144;24.722;2022-12-29T16:55:46;94.63;;;36.93;;
6852;SDS011;3465;42.144;24.722;2022-12-29T16:58:16;94.27;;;37.47;;
6852;SDS011;3465;42.144;24.722;2022-12-29T17:00:46;92.83;;;38.60;;
6852;SDS011;3465;42.144;24.722;2022-12-29T17:03:12;87.90;;;34.57;;
6852;SDS011;3465;42.144;24.722;2022-12-29T17:05:38;87.37;;;33.73;;
6852;SDS011;3465;42.144;24.722;2022-12-29T17:08:13;87.60;;;32.27;;
6852;SDS011;3465;42.144;24.722;2022-12-29T17:10:50;87.10;;;32.77;;
6852;SDS011;3465;42.144;24.722;2022-12-29T17:13:36;71.93;;;29.73;;
6852;SDS011;3465;42.144;24.722;2022-12-29T17:16:03;78.97;;;30.47;;
6852;SDS011;3465;42.144;24.722;2022-12-29T17:18:29;73.40;;;30.70;;
6852;SDS011;3465;42.144;24.722;2022-12-29T17:20:55;87.77;;;32.07;;
6852;SDS011;3465;42.144;24.722;2022-12-29T17:23:20;74.67;;;32.40;;
6852;SDS011;3465;42.144;24.722;2022-12-29T17:25:46;73.80;;;31.20;;
6852;SDS011;3465;42.144;24.722;2022-12-29T17:30:47;77.17;;;32.00;;
6852;SDS011;3465;42.144;24.722;2022-12-29T17:33:14;71.20;;;32.30;;
6852;SDS011;3465;42.144;24.722;2022-12-29T17:35:42;78.30;;;31.07;;
6852;SDS011;3465;42.144;24.722;2022-12-29T17:40:45;68.00;;;30.90;;
6852;SDS011;3465;42.144;24.722;2022-12-29T17:43:12;76.40;;;32.60;;
6852;SDS011;3465;42.144;24.722;2022-12-29T17:45:39;82.90;;;34.00;;
6852;SDS011;3465;42.144;24.722;2022-12-29T17:48:12;91.73;;;34.27;;
6852;SDS011;3465;42.144;24.722;2022-12-29T17:50:40;82.47;;;36.57;;
6852;SDS011;3465;42.144;24.722;2022-12-29T17:53:06;101.47;;;40.90;;
6852;SDS011;3465;42.144;24.722;2022-12-29T17:55:36;104.33;;;41.37;;
6852;SDS011;3465;42.144;24.722;2022-12-29T17:58:10;110.37;;;43.90;;
6852;SDS011;3465;42.144;24.722;2022-12-29T18:00:41;114.30;;;44.67;;
6852;SDS011;3465;42.144;24.722;2022-12-29T18:03:07;107.03;;;43.73;;
6852;SDS011;3465;42.144;24.722;2022-12-29T18:05:38;108.13;;;43.60;;
6852;SDS011;3465;42.144;24.722;2022-12-29T18:08:03;109.57;;;42.30;;
6852;SDS011;3465;42.144;24.722;2022-12-29T18:10:29;108.57;;;40.43;;
6852;SDS011;3465;42.144;24.722;2022-12-29T18:12:57;117.07;;;42.90;;
6852;SDS011;3465;42.144;24.722;2022-12-29T18:15:25;112.07;;;43.30;;
6852;SDS011;3465;42.144;24.722;2022-12-29T18:18:00;110.43;;;42.00;;
6852;SDS011;3465;42.144;24.722;2022-12-29T18:20:30;96.07;;;37.20;;
6852;SDS011;3465;42.144;24.722;2022-12-29T18:22:56;92.87;;;37.47;;